sensor_id;sensor_type;location;lat;lon;timestamp;temperature;humidity
10883;DHT22;5494;51.796;10.952;2022-10-14T00:01:27;13.60;99.90
10883;DHT22;5494;51.796;10.952;2022-10-14T00:03:58;13.60;99.90
10883;DHT22;5494;51.796;10.952;2022-10-14T00:06:31;13.60;99.90
10883;DHT22;5494;51.796;10.952;2022-10-14T00:09:02;13.70;99.90
10883;DHT22;5494;51.796;10.952;2022-10-14T00:11:34;13.70;99.90
10883;DHT22;5494;51.796;10.952;2022-10-14T00:14:07;13.70;99.90
10883;DHT22;5494;51.796;10.952;2022-10-14T00:16:40;13.70;99.90
10883;DHT22;5494;51.796;10.952;2022-10-14T00:19:11;13.70;99.90
10883;DHT22;5494;51.796;10.952;2022-10-14T00:21:43;13.70;99.90
10883;DHT22;5494;51.796;10.952;2022-10-14T00:24:14;13.70;99.90
10883;DHT22;5494;51.796;10.952;2022-10-14T00:26:45;13.70;99.90
10883;DHT22;5494;51.796;10.952;2022-10-14T00:29:15;13.60;99.90
10883;DHT22;5494;51.796;10.952;2022-10-14T00:31:46;15.40;99.90
10883;DHT22;5494;51.796;10.952;2022-10-14T00:34:15;13.60;99.90
10883;DHT22;5494;51.796;10.952;2022-10-14T00:36:45;13.70;99.90
10883;DHT22;5494;51.796;10.952;2022-10-14T00:39:18;13.70;99.90
10883;DHT22;5494;51.796;10.952;2022-10-14T00:41:46;13.70;99.90
10883;DHT22;5494;51.796;10.952;2022-10-14T00:47:27;13.50;99.90
10883;DHT22;5494;51.796;10.952;2022-10-14T00:49:58;13.40;99.90
10883;DHT22;5494;51.796;10.952;2022-10-14T00:52:29;13.30;99.90
10883;DHT22;5494;51.796;10.952;2022-10-14T00:55:01;13.20;99.90
10883;DHT22;5494;51.796;10.952;2022-10-14T00:57:32;13.10;99.90
10883;DHT22;5494;51.796;10.952;2022-10-14T01:00:06;13.20;99.90
10883;DHT22;5494;51.796;10.952;2022-10-14T01:02:37;13.20;99.90
10883;DHT22;5494;51.796;10.952;2022-10-14T01:05:08;13.30;99.90
10883;DHT22;5494;51.796;10.952;2022-10-14T01:07:56;13.20;99.90
10883;DHT22;5494;51.796;10.952;2022-10-14T01:10:36;13.10;99.90
10883;DHT22;5494;51.796;10.952;2022-10-14T01:13:16;13.10;99.90
10883;DHT22;5494;51.796;10.952;2022-10-14T01:16:02;13.10;99.90
10883;DHT22;5494;51.796;10.952;2022-10-14T01:18:49;13.00;99.90
10883;DHT22;5494;51.796;10.952;2022-10-14T01:21:29;13.00;99.90
10883;DHT22;5494;51.796;10.952;2022-10-14T01:24:39;13.00;99.90
10883;DHT22;5494;51.796;10.952;2022-10-14T01:27:17;13.10;99.90
10883;DHT22;5494;51.796;10.952;2022-10-14T01:30:11;13.20;99.90
10883;DHT22;5494;51.796;10.952;2022-10-14T01:33:02;13.30;99.90
10883;DHT22;5494;51.796;10.952;2022-10-14T01:35:45;13.20;99.90
10883;DHT22;5494;51.796;10.952;2022-10-14T01:38:22;13.20;99.90
10883;DHT22;5494;51.796;10.952;2022-10-14T01:41:03;13.30;99.90
10883;DHT22;5494;51.796;10.952;2022-10-14T01:43:37;13.50;99.90
10883;DHT22;5494;51.796;10.952;2022-10-14T01:46:10;13.40;99.90
10883;DHT22;5494;51.796;10.952;2022-10-14T01:48:44;13.30;99.90
10883;DHT22;5494;51.796;10.952;2022-10-14T01:51:20;13.30;99.90
10883;DHT22;5494;51.796;10.952;2022-10-14T01:53:56;13.40;99.90
10883;DHT22;5494;51.796;10.952;2022-10-14T01:56:29;13.50;99.90
10883;DHT22;5494;51.796;10.952;2022-10-14T01:59:08;13.40;99.90
10883;DHT22;5494;51.796;10.952;2022-10-14T02:01:42;13.30;99.90
10883;DHT22;5494;51.796;10.952;2022-10-14T02:04:15;13.30;99.90
10883;DHT22;5494;51.796;10.952;2022-10-14T02:06:51;13.30;99.90
10883;DHT22;5494;51.796;10.952;2022-10-14T02:09:33;13.20;99.90
10883;DHT22;5494;51.796;10.952;2022-10-14T02:12:17;13.20;99.90
10883;DHT22;5494;51.796;10.952;2022-10-14T02:15:02;13.20;99.90
10883;DHT22;5494;51.796;10.952;2022-10-14T02:17:48;13.20;99.90
10883;DHT22;5494;51.796;10.952;2022-10-14T02:20:24;13.20;99.90
10883;DHT22;5494;51.796;10.952;2022-10-14T02:23:01;13.20;99.90
10883;DHT22;5494;51.796;10.952;2022-10-14T02:25:37;13.30;99.90
10883;DHT22;5494;51.796;10.952;2022-10-14T02:28:10;13.40;99.90
10883;DHT22;5494;51.796;10.952;2022-10-14T02:30:49;13.40;99.90
10883;DHT22;5494;51.796;10.952;2022-10-14T02:33:23;13.40;99.90
10883;DHT22;5494;51.796;10.952;2022-10-14T02:35:58;13.50;99.90
10883;DHT22;5494;51.796;10.952;2022-10-14T02:38:30;13.60;99.90
10883;DHT22;5494;51.796;10.952;2022-10-14T02:41:03;13.50;99.90
10883;DHT22;5494;51.796;10.952;2022-10-14T02:43:35;13.40;99.90
10883;DHT22;5494;51.796;10.952;2022-10-14T02:46:05;13.30;99.90
10883;DHT22;5494;51.796;10.952;2022-10-14T02:48:36;13.40;99.90
10883;DHT22;5494;51.796;10.952;2022-10-14T02:51:05;13.30;99.90
10883;DHT22;5494;51.796;10.952;2022-10-14T02:53:37;13.40;99.90
10883;DHT22;5494;51.796;10.952;2022-10-14T02:56:06;13.40;99.90
10883;DHT22;5494;51.796;10.952;2022-10-14T02:58:35;13.40;99.90
10883;DHT22;5494;51.796;10.952;2022-10-14T03:01:04;13.30;99.90
10883;DHT22;5494;51.796;10.952;2022-10-14T03:03:35;13.40;99.90
10883;DHT22;5494;51.796;10.952;2022-10-14T03:06:04;13.40;99.90
10883;DHT22;5494;51.796;10.952;2022-10-14T03:08:34;13.30;99.90
10883;DHT22;5494;51.796;10.952;2022-10-14T03:11:05;13.30;99.90
10883;DHT22;5494;51.796;10.952;2022-10-14T03:13:34;13.30;99.90
10883;DHT22;5494;51.796;10.952;2022-10-14T03:16:03;13.30;99.90
10883;DHT22;5494;51.796;10.952;2022-10-14T03:18:41;13.30;99.90
10883;DHT22;5494;51.796;10.952;2022-10-14T03:21:21;13.30;99.90
10883;DHT22;5494;51.796;10.952;2022-10-14T03:23:49;13.30;99.90
10883;DHT22;5494;51.796;10.952;2022-10-14T03:26:23;13.40;99.90
10883;DHT22;5494;51.796;10.952;2022-10-14T03:28:53;13.40;99.90
10883;DHT22;5494;51.796;10.952;2022-10-14T03:31:28;13.50;99.90
10883;DHT22;5494;51.796;10.952;2022-10-14T03:34:23;13.40;99.90
10883;DHT22;5494;51.796;10.952;2022-10-14T03:37:02;13.40;99.90
10883;DHT22;5494;51.796;10.952;2022-10-14T03:39:33;13.50;99.90
10883;DHT22;5494;51.796;10.952;2022-10-14T03:42:04;13.60;99.90
10883;DHT22;5494;51.796;10.952;2022-10-14T03:44:40;13.60;99.90
10883;DHT22;5494;51.796;10.952;2022-10-14T03:47:16;13.60;99.90
10883;DHT22;5494;51.796;10.952;2022-10-14T03:49:46;13.60;99.90
10883;DHT22;5494;51.796;10.952;2022-10-14T03:52:30;13.50;99.90
10883;DHT22;5494;51.796;10.952;2022-10-14T03:55:09;13.50;99.90
10883;DHT22;5494;51.796;10.952;2022-10-14T03:57:40;13.50;99.90
10883;DHT22;5494;51.796;10.952;2022-10-14T04:00:11;13.50;99.90
10883;DHT22;5494;51.796;10.952;2022-10-14T04:02:40;13.50;99.90
10883;DHT22;5494;51.796;10.952;2022-10-14T04:05:24;13.50;99.90
10883;DHT22;5494;51.796;10.952;2022-10-14T04:07:57;13.40;99.90
10883;DHT22;5494;51.796;10.952;2022-10-14T04:10:27;13.50;99.90
10883;DHT22;5494;51.796;10.952;2022-10-14T04:12:56;13.50;99.90
10883;DHT22;5494;51.796;10.952;2022-10-14T04:15:35;13.50;99.90
10883;DHT22;5494;51.796;10.952;2022-10-14T04:18:12;13.50;99.90
10883;DHT22;5494;51.796;10.952;2022-10-14T04:20:43;13.50;99.90
10883;DHT22;5494;51.796;10.952;2022-10-14T04:23:13;13.50;99.90
10883;DHT22;5494;51.796;10.952;2022-10-14T04:25:45;13.60;99.90
10883;DHT22;5494;51.796;10.952;2022-10-14T04:28:13;13.50;99.90
10883;DHT22;5494;51.796;10.952;2022-10-14T04:30:57;13.50;99.90
10883;DHT22;5494;51.796;10.952;2022-10-14T04:33:32;13.50;99.90
10883;DHT22;5494;51.796;10.952;2022-10-14T04:36:10;13.50;99.90
10883;DHT22;5494;51.796;10.952;2022-10-14T04:38:40;13.40;99.90
10883;DHT22;5494;51.796;10.952;2022-10-14T04:41:10;13.40;99.90
10883;DHT22;5494;51.796;10.952;2022-10-14T04:43:45;13.40;99.90
10883;DHT22;5494;51.796;10.952;2022-10-14T04:46:27;13.40;99.90
10883;DHT22;5494;51.796;10.952;2022-10-14T04:48:58;13.40;99.90
10883;DHT22;5494;51.796;10.952;2022-10-14T04:51:34;13.40;99.90
10883;DHT22;5494;51.796;10.952;2022-10-14T04:54:14;13.40;99.90
10883;DHT22;5494;51.796;10.952;2022-10-14T04:56:50;13.40;99.90
10883;DHT22;5494;51.796;10.952;2022-10-14T04:59:19;13.40;99.90
10883;DHT22;5494;51.796;10.952;2022-10-14T05:02:07;13.40;99.90
10883;DHT22;5494;51.796;10.952;2022-10-14T05:04:45;12.50;99.90
10883;DHT22;5494;51.796;10.952;2022-10-14T05:07:15;13.40;99.90
10883;DHT22;5494;51.796;10.952;2022-10-14T05:09:48;13.40;99.90
10883;DHT22;5494;51.796;10.952;2022-10-14T05:12:34;13.40;99.90
10883;DHT22;5494;51.796;10.952;2022-10-14T05:15:05;13.40;99.90
10883;DHT22;5494;51.796;10.952;2022-10-14T05:17:44;13.40;99.90
10883;DHT22;5494;51.796;10.952;2022-10-14T05:20:16;13.40;99.90
10883;DHT22;5494;51.796;10.952;2022-10-14T05:22:51;13.40;99.90
10883;DHT22;5494;51.796;10.952;2022-10-14T05:25:20;13.40;99.90
10883;DHT22;5494;51.796;10.952;2022-10-14T05:27:50;13.40;99.90
10883;DHT22;5494;51.796;10.952;2022-10-14T05:30:20;13.30;99.90
10883;DHT22;5494;51.796;10.952;2022-10-14T05:32:51;13.30;99.90
10883;DHT22;5494;51.796;10.952;2022-10-14T05:35:20;13.40;99.90
10883;DHT22;5494;51.796;10.952;2022-10-14T05:38:10;13.40;99.90
10883;DHT22;5494;51.796;10.952;2022-10-14T05:40:42;13.30;99.90
10883;DHT22;5494;51.796;10.952;2022-10-14T05:43:10;13.40;99.90
10883;DHT22;5494;51.796;10.952;2022-10-14T05:45:42;13.40;99.90
10883;DHT22;5494;51.796;10.952;2022-10-14T05:48:11;13.40;99.90
10883;DHT22;5494;51.796;10.952;2022-10-14T05:50:41;13.30;99.90
10883;DHT22;5494;51.796;10.952;2022-10-14T05:53:15;13.40;99.90
10883;DHT22;5494;51.796;10.952;2022-10-14T05:55:47;13.50;99.90
10883;DHT22;5494;51.796;10.952;2022-10-14T05:58:18;13.40;99.90
10883;DHT22;5494;51.796;10.952;2022-10-14T06:00:47;13.40;99.90
10883;DHT22;5494;51.796;10.952;2022-10-14T06:03:18;13.30;99.90
10883;DHT22;5494;51.796;10.952;2022-10-14T06:05:47;13.30;99.90
10883;DHT22;5494;51.796;10.952;2022-10-14T06:08:17;13.30;99.90
10883;DHT22;5494;51.796;10.952;2022-10-14T06:10:46;13.30;99.90
10883;DHT22;5494;51.796;10.952;2022-10-14T06:13:15;13.30;99.90
10883;DHT22;5494;51.796;10.952;2022-10-14T06:15:47;13.30;99.90
10883;DHT22;5494;51.796;10.952;2022-10-14T06:18:16;13.40;99.90
10883;DHT22;5494;51.796;10.952;2022-10-14T06:20:50;13.40;99.90
10883;DHT22;5494;51.796;10.952;2022-10-14T06:23:21;13.40;99.90
10883;DHT22;5494;51.796;10.952;2022-10-14T06:25:49;13.40;99.90
10883;DHT22;5494;51.796;10.952;2022-10-14T06:28:18;13.40;99.90
10883;DHT22;5494;51.796;10.952;2022-10-14T06:30:50;13.40;99.90
10883;DHT22;5494;51.796;10.952;2022-10-14T06:33:20;13.40;99.90
10883;DHT22;5494;51.796;10.952;2022-10-14T06:35:49;13.40;99.90
10883;DHT22;5494;51.796;10.952;2022-10-14T06:38:18;13.40;99.90
10883;DHT22;5494;51.796;10.952;2022-10-14T06:40:50;13.50;99.90
10883;DHT22;5494;51.796;10.952;2022-10-14T06:43:19;13.50;99.90
10883;DHT22;5494;51.796;10.952;2022-10-14T06:45:49;13.60;99.90
10883;DHT22;5494;51.796;10.952;2022-10-14T06:48:18;13.60;99.90
10883;DHT22;5494;51.796;10.952;2022-10-14T06:50:48;13.60;99.90
10883;DHT22;5494;51.796;10.952;2022-10-14T06:53:17;13.60;99.90
10883;DHT22;5494;51.796;10.952;2022-10-14T06:55:46;13.70;99.90
10883;DHT22;5494;51.796;10.952;2022-10-14T06:58:16;13.80;99.90
10883;DHT22;5494;51.796;10.952;2022-10-14T07:00:45;13.80;99.90
10883;DHT22;5494;51.796;10.952;2022-10-14T07:03:14;14.00;99.90
10883;DHT22;5494;51.796;10.952;2022-10-14T07:05:43;14.20;99.90
10883;DHT22;5494;51.796;10.952;2022-10-14T07:08:11;14.20;99.90
10883;DHT22;5494;51.796;10.952;2022-10-14T07:10:42;14.30;99.90
10883;DHT22;5494;51.796;10.952;2022-10-14T07:13:11;14.30;99.90
10883;DHT22;5494;51.796;10.952;2022-10-14T07:15:40;14.30;99.90
10883;DHT22;5494;51.796;10.952;2022-10-14T07:18:09;14.30;99.90
10883;DHT22;5494;51.796;10.952;2022-10-14T07:20:38;14.40;99.90
10883;DHT22;5494;51.796;10.952;2022-10-14T07:23:07;14.50;99.90
10883;DHT22;5494;51.796;10.952;2022-10-14T07:25:36;14.60;99.90
10883;DHT22;5494;51.796;10.952;2022-10-14T07:28:05;14.70;99.90
10883;DHT22;5494;51.796;10.952;2022-10-14T07:30:34;14.80;99.90
10883;DHT22;5494;51.796;10.952;2022-10-14T07:33:05;14.70;99.90
10883;DHT22;5494;51.796;10.952;2022-10-14T07:35:36;14.60;99.90
10883;DHT22;5494;51.796;10.952;2022-10-14T07:38:05;14.60;99.90
10883;DHT22;5494;51.796;10.952;2022-10-14T07:40:34;14.50;99.90
10883;DHT22;5494;51.796;10.952;2022-10-14T07:43:02;14.40;99.90
10883;DHT22;5494;51.796;10.952;2022-10-14T07:45:31;14.30;99.90
10883;DHT22;5494;51.796;10.952;2022-10-14T07:48:02;14.20;99.90
10883;DHT22;5494;51.796;10.952;2022-10-14T07:50:32;14.30;99.90
10883;DHT22;5494;51.796;10.952;2022-10-14T07:53:01;14.60;99.90
10883;DHT22;5494;51.796;10.952;2022-10-14T07:55:29;14.70;99.90
10883;DHT22;5494;51.796;10.952;2022-10-14T07:57:58;14.80;99.90
10883;DHT22;5494;51.796;10.952;2022-10-14T08:00:27;14.90;99.90
10883;DHT22;5494;51.796;10.952;2022-10-14T08:02:55;15.00;99.90
10883;DHT22;5494;51.796;10.952;2022-10-14T08:05:24;15.10;99.90
10883;DHT22;5494;51.796;10.952;2022-10-14T08:08:10;15.50;99.90
10883;DHT22;5494;51.796;10.952;2022-10-14T08:10:40;15.80;99.90
10883;DHT22;5494;51.796;10.952;2022-10-14T08:13:09;16.10;99.90
10883;DHT22;5494;51.796;10.952;2022-10-14T08:15:40;16.30;99.90
10883;DHT22;5494;51.796;10.952;2022-10-14T08:18:09;16.50;99.90
10883;DHT22;5494;51.796;10.952;2022-10-14T08:20:38;16.60;99.90
10883;DHT22;5494;51.796;10.952;2022-10-14T08:23:07;16.80;99.90
10883;DHT22;5494;51.796;10.952;2022-10-14T08:25:38;16.90;99.90
10883;DHT22;5494;51.796;10.952;2022-10-14T08:28:07;17.00;99.90
10883;DHT22;5494;51.796;10.952;2022-10-14T08:30:37;17.10;99.90
10883;DHT22;5494;51.796;10.952;2022-10-14T08:33:05;17.20;99.90
10883;DHT22;5494;51.796;10.952;2022-10-14T08:35:34;17.30;99.90
10883;DHT22;5494;51.796;10.952;2022-10-14T08:38:02;17.30;99.90
10883;DHT22;5494;51.796;10.952;2022-10-14T08:40:42;17.00;99.90
10883;DHT22;5494;51.796;10.952;2022-10-14T08:43:29;17.20;99.90
10883;DHT22;5494;51.796;10.952;2022-10-14T08:46:04;17.00;99.90
10883;DHT22;5494;51.796;10.952;2022-10-14T08:48:43;16.90;99.90
10883;DHT22;5494;51.796;10.952;2022-10-14T08:51:16;16.90;99.90
10883;DHT22;5494;51.796;10.952;2022-10-14T08:53:50;17.00;99.90
10883;DHT22;5494;51.796;10.952;2022-10-14T08:56:24;17.10;99.90
10883;DHT22;5494;51.796;10.952;2022-10-14T08:58:55;17.10;99.90
10883;DHT22;5494;51.796;10.952;2022-10-14T09:01:31;17.20;99.90
10883;DHT22;5494;51.796;10.952;2022-10-14T09:04:03;17.30;99.90
10883;DHT22;5494;51.796;10.952;2022-10-14T09:06:34;17.30;99.90
10883;DHT22;5494;51.796;10.952;2022-10-14T09:09:11;17.40;99.90
10883;DHT22;5494;51.796;10.952;2022-10-14T09:11:50;17.50;99.90
10883;DHT22;5494;51.796;10.952;2022-10-14T09:14:25;17.60;99.90
10883;DHT22;5494;51.796;10.952;2022-10-14T09:17:05;17.60;99.90
10883;DHT22;5494;51.796;10.952;2022-10-14T09:19:48;17.40;99.90
10883;DHT22;5494;51.796;10.952;2022-10-14T09:22:19;17.30;99.90
10883;DHT22;5494;51.796;10.952;2022-10-14T09:24:48;17.00;99.90
10883;DHT22;5494;51.796;10.952;2022-10-14T09:27:20;17.00;99.90
10883;DHT22;5494;51.796;10.952;2022-10-14T09:29:53;17.00;99.90
10883;DHT22;5494;51.796;10.952;2022-10-14T09:32:28;17.30;99.90
10883;DHT22;5494;51.796;10.952;2022-10-14T09:34:59;17.40;99.90
10883;DHT22;5494;51.796;10.952;2022-10-14T09:37:31;17.60;99.90
10883;DHT22;5494;51.796;10.952;2022-10-14T09:40:04;17.50;99.90
10883;DHT22;5494;51.796;10.952;2022-10-14T09:42:48;17.60;99.90
10883;DHT22;5494;51.796;10.952;2022-10-14T09:45:21;17.70;99.90
10883;DHT22;5494;51.796;10.952;2022-10-14T09:47:52;17.90;99.90
10883;DHT22;5494;51.796;10.952;2022-10-14T09:50:31;18.10;99.90
10883;DHT22;5494;51.796;10.952;2022-10-14T09:53:05;18.50;99.90
10883;DHT22;5494;51.796;10.952;2022-10-14T09:55:47;18.70;99.90
10883;DHT22;5494;51.796;10.952;2022-10-14T09:58:26;18.80;99.90
10883;DHT22;5494;51.796;10.952;2022-10-14T10:01:03;18.80;99.90
10883;DHT22;5494;51.796;10.952;2022-10-14T10:03:39;19.10;99.90
10883;DHT22;5494;51.796;10.952;2022-10-14T10:06:11;19.10;99.90
10883;DHT22;5494;51.796;10.952;2022-10-14T10:08:54;19.20;99.90
10883;DHT22;5494;51.796;10.952;2022-10-14T10:11:27;19.30;99.90
10883;DHT22;5494;51.796;10.952;2022-10-14T10:14:15;19.40;99.90
10883;DHT22;5494;51.796;10.952;2022-10-14T10:16:45;19.40;99.90
10883;DHT22;5494;51.796;10.952;2022-10-14T10:19:26;19.30;99.90
10883;DHT22;5494;51.796;10.952;2022-10-14T10:22:18;19.40;99.90
10883;DHT22;5494;51.796;10.952;2022-10-14T10:24:51;19.80;99.90
10883;DHT22;5494;51.796;10.952;2022-10-14T10:27:46;19.80;99.90
10883;DHT22;5494;51.796;10.952;2022-10-14T10:30:22;19.80;99.90
10883;DHT22;5494;51.796;10.952;2022-10-14T10:33:06;19.70;99.90
10883;DHT22;5494;51.796;10.952;2022-10-14T10:35:55;19.40;99.90
10883;DHT22;5494;51.796;10.952;2022-10-14T10:38:37;19.30;99.90
10883;DHT22;5494;51.796;10.952;2022-10-14T10:41:24;19.10;99.90
10883;DHT22;5494;51.796;10.952;2022-10-14T10:44:18;18.90;99.90
10883;DHT22;5494;51.796;10.952;2022-10-14T10:47:17;18.80;99.90
10883;DHT22;5494;51.796;10.952;2022-10-14T10:50:16;18.70;99.90
10883;DHT22;5494;51.796;10.952;2022-10-14T10:53:19;18.80;99.90
10883;DHT22;5494;51.796;10.952;2022-10-14T10:56:14;19.00;99.90
10883;DHT22;5494;51.796;10.952;2022-10-14T10:59:00;19.30;99.90
10883;DHT22;5494;51.796;10.952;2022-10-14T11:01:44;19.50;99.90
10883;DHT22;5494;51.796;10.952;2022-10-14T11:04:27;19.50;99.90
10883;DHT22;5494;51.796;10.952;2022-10-14T11:07:07;20.00;99.90
10883;DHT22;5494;51.796;10.952;2022-10-14T11:10:11;20.00;99.90
10883;DHT22;5494;51.796;10.952;2022-10-14T11:13:17;20.30;99.90
10883;DHT22;5494;51.796;10.952;2022-10-14T11:15:53;20.40;99.90
10883;DHT22;5494;51.796;10.952;2022-10-14T11:18:37;20.30;99.90
10883;DHT22;5494;51.796;10.952;2022-10-14T11:21:21;20.10;99.90
10883;DHT22;5494;51.796;10.952;2022-10-14T11:24:05;19.80;99.90
10883;DHT22;5494;51.796;10.952;2022-10-14T11:26:58;19.50;99.90
10883;DHT22;5494;51.796;10.952;2022-10-14T11:29:50;19.30;99.90
10883;DHT22;5494;51.796;10.952;2022-10-14T11:33:02;19.20;99.90
10883;DHT22;5494;51.796;10.952;2022-10-14T11:35:50;19.20;99.90
10883;DHT22;5494;51.796;10.952;2022-10-14T11:38:51;19.00;99.90
10883;DHT22;5494;51.796;10.952;2022-10-14T11:41:37;18.80;99.90
10883;DHT22;5494;51.796;10.952;2022-10-14T11:44:23;18.90;99.90
10883;DHT22;5494;51.796;10.952;2022-10-14T11:47:02;19.00;99.90
10883;DHT22;5494;51.796;10.952;2022-10-14T11:49:43;19.20;99.90
10883;DHT22;5494;51.796;10.952;2022-10-14T11:52:22;19.20;99.90
10883;DHT22;5494;51.796;10.952;2022-10-14T11:55:00;19.00;99.90
10883;DHT22;5494;51.796;10.952;2022-10-14T11:57:41;19.10;99.90
10883;DHT22;5494;51.796;10.952;2022-10-14T12:00:33;19.10;99.90
10883;DHT22;5494;51.796;10.952;2022-10-14T12:03:26;18.90;99.90
10883;DHT22;5494;51.796;10.952;2022-10-14T12:06:11;18.90;99.90
10883;DHT22;5494;51.796;10.952;2022-10-14T12:08:49;19.20;99.90
10883;DHT22;5494;51.796;10.952;2022-10-14T12:11:28;19.20;99.90
10883;DHT22;5494;51.796;10.952;2022-10-14T12:14:05;19.10;99.90
10883;DHT22;5494;51.796;10.952;2022-10-14T12:16:43;18.90;99.90
10883;DHT22;5494;51.796;10.952;2022-10-14T12:19:19;18.80;99.90
10883;DHT22;5494;51.796;10.952;2022-10-14T12:21:55;18.60;99.90
10883;DHT22;5494;51.796;10.952;2022-10-14T12:24:32;18.40;99.90
10883;DHT22;5494;51.796;10.952;2022-10-14T12:27:10;18.50;99.90
10883;DHT22;5494;51.796;10.952;2022-10-14T12:29:44;18.40;99.90
10883;DHT22;5494;51.796;10.952;2022-10-14T12:32:21;18.50;99.90
10883;DHT22;5494;51.796;10.952;2022-10-14T12:34:53;18.50;99.90
10883;DHT22;5494;51.796;10.952;2022-10-14T12:37:50;18.60;99.90
10883;DHT22;5494;51.796;10.952;2022-10-14T12:40:28;18.70;99.90
10883;DHT22;5494;51.796;10.952;2022-10-14T12:43:11;18.80;99.90
10883;DHT22;5494;51.796;10.952;2022-10-14T12:45:49;19.00;99.90
10883;DHT22;5494;51.796;10.952;2022-10-14T12:48:26;19.20;99.90
10883;DHT22;5494;51.796;10.952;2022-10-14T12:51:07;19.30;99.90
10883;DHT22;5494;51.796;10.952;2022-10-14T12:53:47;19.50;99.90
10883;DHT22;5494;51.796;10.952;2022-10-14T12:56:36;19.50;99.90
10883;DHT22;5494;51.796;10.952;2022-10-14T12:59:20;19.70;99.90
10883;DHT22;5494;51.796;10.952;2022-10-14T13:01:57;19.60;99.90
10883;DHT22;5494;51.796;10.952;2022-10-14T13:04:31;19.40;99.90
10883;DHT22;5494;51.796;10.952;2022-10-14T13:07:30;19.30;99.90
10883;DHT22;5494;51.796;10.952;2022-10-14T13:10:43;19.00;99.90
10883;DHT22;5494;51.796;10.952;2022-10-14T13:13:46;18.80;99.90
10883;DHT22;5494;51.796;10.952;2022-10-14T13:16:56;18.80;99.90
10883;DHT22;5494;51.796;10.952;2022-10-14T13:19:44;18.80;99.90
10883;DHT22;5494;51.796;10.952;2022-10-14T13:22:33;18.70;99.90
10883;DHT22;5494;51.796;10.952;2022-10-14T13:25:19;18.70;99.90
10883;DHT22;5494;51.796;10.952;2022-10-14T13:27:56;18.30;99.90
10883;DHT22;5494;51.796;10.952;2022-10-14T13:30:50;18.10;99.90
10883;DHT22;5494;51.796;10.952;2022-10-14T13:33:33;18.00;99.90
10883;DHT22;5494;51.796;10.952;2022-10-14T13:36:16;17.90;99.90
10883;DHT22;5494;51.796;10.952;2022-10-14T13:38:52;17.80;99.90
10883;DHT22;5494;51.796;10.952;2022-10-14T13:41:25;17.70;99.90
10883;DHT22;5494;51.796;10.952;2022-10-14T13:43:58;17.50;99.90
10883;DHT22;5494;51.796;10.952;2022-10-14T13:46:31;17.40;99.90
10883;DHT22;5494;51.796;10.952;2022-10-14T13:49:12;17.50;99.90
10883;DHT22;5494;51.796;10.952;2022-10-14T13:51:47;17.60;99.90
10883;DHT22;5494;51.796;10.952;2022-10-14T13:54:21;17.60;99.90
10883;DHT22;5494;51.796;10.952;2022-10-14T13:56:59;17.60;99.90
10883;DHT22;5494;51.796;10.952;2022-10-14T13:59:49;17.60;99.90
10883;DHT22;5494;51.796;10.952;2022-10-14T14:02:41;17.60;99.90
10883;DHT22;5494;51.796;10.952;2022-10-14T14:05:25;17.70;99.90
10883;DHT22;5494;51.796;10.952;2022-10-14T14:07:59;17.80;99.90
10883;DHT22;5494;51.796;10.952;2022-10-14T14:10:54;17.80;99.90
10883;DHT22;5494;51.796;10.952;2022-10-14T14:13:48;17.80;99.90
10883;DHT22;5494;51.796;10.952;2022-10-14T14:16:31;17.80;99.90
10883;DHT22;5494;51.796;10.952;2022-10-14T14:19:03;17.80;99.90
10883;DHT22;5494;51.796;10.952;2022-10-14T14:21:38;17.70;99.90
10883;DHT22;5494;51.796;10.952;2022-10-14T14:24:16;17.60;99.90
10883;DHT22;5494;51.796;10.952;2022-10-14T14:26:52;17.40;99.90
10883;DHT22;5494;51.796;10.952;2022-10-14T14:29:27;17.20;99.90
10883;DHT22;5494;51.796;10.952;2022-10-14T14:31:59;17.10;99.90
10883;DHT22;5494;51.796;10.952;2022-10-14T14:34:36;17.10;99.90
10883;DHT22;5494;51.796;10.952;2022-10-14T14:37:15;16.90;99.90
10883;DHT22;5494;51.796;10.952;2022-10-14T14:40:15;16.90;99.90
10883;DHT22;5494;51.796;10.952;2022-10-14T14:42:49;16.80;99.90
10883;DHT22;5494;51.796;10.952;2022-10-14T14:45:22;16.90;99.90
10883;DHT22;5494;51.796;10.952;2022-10-14T14:47:54;16.90;99.90
10883;DHT22;5494;51.796;10.952;2022-10-14T14:50:27;17.00;99.90
10883;DHT22;5494;51.796;10.952;2022-10-14T14:53:03;17.00;99.90
10883;DHT22;5494;51.796;10.952;2022-10-14T14:55:43;17.10;99.90
10883;DHT22;5494;51.796;10.952;2022-10-14T14:58:23;17.20;99.90
10883;DHT22;5494;51.796;10.952;2022-10-14T15:00:55;17.20;99.90
10883;DHT22;5494;51.796;10.952;2022-10-14T15:03:25;17.20;99.90
10883;DHT22;5494;51.796;10.952;2022-10-14T15:05:59;17.20;99.90
10883;DHT22;5494;51.796;10.952;2022-10-14T15:08:33;17.10;99.90
10883;DHT22;5494;51.796;10.952;2022-10-14T15:11:04;17.00;99.90
10883;DHT22;5494;51.796;10.952;2022-10-14T15:13:44;16.90;99.90
10883;DHT22;5494;51.796;10.952;2022-10-14T15:16:36;16.70;99.90
10883;DHT22;5494;51.796;10.952;2022-10-14T15:19:26;16.60;99.90
10883;DHT22;5494;51.796;10.952;2022-10-14T15:22:10;16.50;99.90
10883;DHT22;5494;51.796;10.952;2022-10-14T15:25:04;16.50;99.90
10883;DHT22;5494;51.796;10.952;2022-10-14T15:27:45;16.50;99.90
10883;DHT22;5494;51.796;10.952;2022-10-14T15:30:21;16.40;99.90
10883;DHT22;5494;51.796;10.952;2022-10-14T15:32:57;16.50;99.90
10883;DHT22;5494;51.796;10.952;2022-10-14T15:35:27;15.80;99.90
10883;DHT22;5494;51.796;10.952;2022-10-14T15:37:57;16.40;99.90
10883;DHT22;5494;51.796;10.952;2022-10-14T15:40:29;16.40;99.90
10883;DHT22;5494;51.796;10.952;2022-10-14T15:43:00;16.30;99.90
10883;DHT22;5494;51.796;10.952;2022-10-14T15:45:28;16.30;99.90
10883;DHT22;5494;51.796;10.952;2022-10-14T15:48:00;16.30;99.90
10883;DHT22;5494;51.796;10.952;2022-10-14T15:50:32;16.10;99.90
10883;DHT22;5494;51.796;10.952;2022-10-14T15:53:06;16.20;99.90
10883;DHT22;5494;51.796;10.952;2022-10-14T15:55:38;16.20;99.90
10883;DHT22;5494;51.796;10.952;2022-10-14T15:58:09;16.10;99.90
10883;DHT22;5494;51.796;10.952;2022-10-14T16:00:38;16.10;99.90
10883;DHT22;5494;51.796;10.952;2022-10-14T16:03:09;16.10;99.90
10883;DHT22;5494;51.796;10.952;2022-10-14T16:05:38;16.00;99.90
10883;DHT22;5494;51.796;10.952;2022-10-14T16:08:09;15.90;99.90
10883;DHT22;5494;51.796;10.952;2022-10-14T16:10:43;15.90;99.90
10883;DHT22;5494;51.796;10.952;2022-10-14T16:13:13;15.80;99.90
10883;DHT22;5494;51.796;10.952;2022-10-14T16:15:46;15.80;99.90
10883;DHT22;5494;51.796;10.952;2022-10-14T16:18:18;15.80;99.90
10883;DHT22;5494;51.796;10.952;2022-10-14T16:20:50;15.90;99.90
10883;DHT22;5494;51.796;10.952;2022-10-14T16:23:21;15.90;99.90
10883;DHT22;5494;51.796;10.952;2022-10-14T16:25:58;15.90;99.90
10883;DHT22;5494;51.796;10.952;2022-10-14T16:28:28;15.90;99.90
10883;DHT22;5494;51.796;10.952;2022-10-14T16:30:58;16.00;99.90